Hurghada, Egypti

31. tammikuuta 2015 klo 01:12 (EET) (GMT +0200)
Hurghada International | Change Station
CLOSE
Current Station
Airport
Location: Hurghada,
Korkeus: 46 ft
Lähimmät sääasemat

Kork 46 ft 27.18 °N, 33.80 °E | Updated 1 hour ago

Clear
Selkeää
55 °F
Tuntuu kuin 55 °F
N
9
Tuuli Suunnaltaan vaihteleva Tuuli ilmansuunnasta Lännen ja luoteen välinen

Tänään
Korkea -- | Matala -- °F
--% Sateen mahd.
Eilen
Korkea -- | Matala -- °F
Precip. -- tuumaa
6:31 AM 5:25 PM
Kasvava kupera kuu, 85% visible
Ilmanpaine 30.09 tuumaa
Näkyvyys -9999.0 mailia
Pilviä
Kastepiste 28 °F
Ilmankosteus 36%
Sademäärä 0.00 tuumaa
Lumensyvyys Ei saatavilla
UV Ei saatavilla
Pollen Ei saatavilla
Ilmanlaatu Ei saatavilla
Flu Activity Ei saatavilla
METAR HEGN 302200Z 30008KT CAVOK 13/M02 Q1019 NOSIG

More Conditions Fewer Conditions

Ilmanpaine 30.09 tuumaa
Näkyvyys -9999.0 mailia
Pilviä
Kastepiste 28 °F
Ilmankosteus 36%
Sademäärä 0.00 tuumaa
Lumensyvyys Ei saatavilla
UV Ei saatavilla
Pollen Ei saatavilla
Ilmanlaatu Ei saatavilla
Flu Activity Ei saatavilla
METAR HEGN 302200Z 30008KT CAVOK 13/M02 Q1019 NOSIG

More Conditions Fewer Conditions

10-Day Weather Forecast

Almanac

Tähtitiede

Jan. 31, 2015 Nousuaika Laskuaika
Valoisa aika
Porvarillinen hämärä
Nauttinen hämärä
Astronominen hämärä
Kuu
Näkyvän valon pituus
Päivän pituus
Tomorrow will be .
, % of the Moon is Illuminated

Tämän päivän ennätykset

Country Highs Country Lows

Community

WunderPhotos

Upload Photos

1,791,918 photos uploaded!

WunderBlogs® & News

Nearby

Ilmanlaatu

  Ilmanlaatu AQ Index Pollutant
Not available.

Lumensyvyys

Station Depth Korkeus

Maanjäristysaktiivisuus

Paikkakunta Distance Mag. Time & Date
Minimum magnitude displayed is 2.5.

Coastal Water Temperatures

Paikka Lämpötila

Lähimmät sääasemat